createdAt,value
2023-03-05T00:01:40.459Z,0.54
2023-03-05T00:04:11.286Z,0.53
2023-03-05T00:06:41.985Z,0.52
2023-03-05T00:09:12.805Z,0.53
2023-03-05T00:11:43.601Z,0.52
2023-03-05T00:14:14.470Z,0.51
2023-03-05T00:16:45.255Z,0.51
2023-03-05T00:19:16.207Z,0.53
2023-03-05T00:21:46.859Z,0.53
2023-03-05T00:24:17.682Z,0.51
2023-03-05T00:26:48.492Z,0.54
2023-03-05T00:29:19.338Z,0.51
2023-03-05T00:31:50.139Z,0.51
2023-03-05T00:34:21.036Z,0.51
2023-03-05T00:36:51.842Z,0.51
2023-03-05T00:39:22.560Z,0.53
2023-03-05T00:41:53.334Z,0.55
2023-03-05T00:44:24.232Z,0.51
2023-03-05T00:46:55.013Z,0.52
2023-03-05T00:49:25.741Z,0.56
2023-03-05T00:51:56.510Z,0.53
2023-03-05T00:54:27.371Z,0.54
2023-03-05T00:56:58.098Z,0.54
2023-03-05T00:59:28.926Z,0.55
2023-03-05T01:01:59.729Z,0.54
2023-03-05T01:04:30.494Z,0.52
2023-03-05T01:07:01.269Z,0.52
2023-03-05T01:09:32.061Z,0.52
2023-03-05T01:12:02.849Z,0.51
2023-03-05T01:14:33.649Z,0.51
2023-03-05T01:17:04.436Z,0.51
2023-03-05T01:19:34.908Z,0.51
2023-03-05T01:22:05.677Z,0.51
2023-03-05T01:24:36.492Z,0.49
2023-03-05T01:27:07.282Z,0.51
2023-03-05T01:29:38.078Z,0.5
2023-03-05T01:32:08.949Z,0.51
2023-03-05T01:34:39.692Z,0.51
2023-03-05T01:37:10.469Z,0.54
2023-03-05T01:39:41.291Z,0.49
2023-03-05T01:42:12.118Z,0.49
2023-03-05T01:44:42.600Z,0.5
2023-03-05T01:47:13.490Z,0.5
2023-03-05T01:49:44.241Z,0.51
2023-03-05T01:52:15.057Z,0.51
2023-03-05T01:54:45.849Z,0.54
2023-03-05T01:57:16.700Z,0.57
2023-03-05T01:59:47.646Z,0.54
2023-03-05T02:02:17.975Z,0.46
2023-03-05T02:04:48.804Z,0.45
2023-03-05T02:07:19.586Z,0.45
2023-03-05T02:09:50.425Z,0.47
2023-03-05T02:12:21.207Z,0.45
2023-03-05T02:14:52.026Z,0.44
2023-03-05T02:17:22.814Z,0.44
2023-03-05T02:19:53.654Z,0.46
2023-03-05T02:22:24.441Z,0.47
2023-03-05T02:24:55.353Z,0.49
2023-03-05T02:27:26.046Z,0.46
2023-03-05T02:29:56.881Z,0.45
2023-03-05T02:32:27.815Z,0.42
2023-03-05T02:34:58.506Z,0.43
2023-03-05T02:37:28.960Z,0.44
2023-03-05T02:39:59.830Z,0.4
2023-03-05T02:42:30.554Z,0.37
2023-03-05T02:45:01.380Z,0.36
2023-03-05T02:47:32.160Z,0.37
2023-03-05T02:50:03.002Z,0.35
2023-03-05T02:52:33.807Z,0.37
2023-03-05T02:55:04.618Z,0.36
2023-03-05T02:57:35.433Z,0.37
2023-03-05T03:00:06.433Z,0.39
2023-03-05T03:02:37.053Z,0.4
2023-03-05T03:05:07.873Z,0.42
2023-03-05T03:07:38.661Z,0.44
2023-03-05T03:10:09.485Z,0.45
2023-03-05T03:12:40.275Z,0.49
2023-03-05T03:15:11.105Z,0.51
2023-03-05T03:17:41.914Z,0.51
2023-03-05T03:20:12.740Z,0.52
2023-03-05T03:22:43.529Z,0.53
2023-03-05T03:25:14.352Z,0.56
2023-03-05T03:27:45.150Z,0.56
2023-03-05T03:30:15.993Z,0.55
2023-03-05T03:32:46.884Z,0.57
2023-03-05T03:35:17.632Z,0.58
2023-03-05T03:37:48.390Z,0.59
2023-03-05T03:40:19.219Z,0.59
2023-03-05T03:42:50.144Z,0.57
2023-03-05T03:45:20.850Z,0.58
2023-03-05T03:47:51.660Z,0.57
2023-03-05T03:50:22.490Z,0.55
2023-03-05T03:52:53.370Z,0.55
2023-03-05T03:55:24.205Z,0.57
2023-03-05T03:57:54.943Z,0.58
2023-03-05T04:00:25.912Z,0.58
2023-03-05T04:02:56.263Z,0.58
2023-03-05T04:05:27.126Z,0.57
2023-03-05T04:07:57.901Z,0.56
2023-03-05T04:10:28.740Z,0.59
2023-03-05T04:12:59.551Z,0.57
2023-03-05T04:15:30.396Z,0.58
2023-03-05T04:18:01.228Z,0.59
2023-03-05T04:20:32.035Z,0.58
2023-03-05T04:23:02.908Z,0.6
2023-03-05T04:25:33.657Z,0.61
2023-03-05T04:28:04.462Z,0.6
2023-03-05T04:30:35.274Z,0.6
2023-03-05T04:33:06.093Z,0.61
2023-03-05T04:35:37.077Z,0.63
2023-03-05T04:38:07.721Z,0.63
2023-03-05T04:40:38.582Z,0.61
2023-03-05T04:43:09.361Z,0.63
2023-03-05T04:45:40.196Z,0.63
2023-03-05T04:48:10.992Z,0.63
2023-03-05T04:50:41.837Z,0.64
2023-03-05T04:53:12.625Z,0.6
2023-03-05T04:55:43.459Z,0.61
2023-03-05T04:58:14.261Z,0.63
2023-03-05T05:00:45.081Z,0.63
2023-03-05T05:03:16.097Z,0.61
2023-03-05T05:05:46.712Z,0.61
2023-03-05T05:08:17.507Z,0.61
2023-03-05T05:10:48.344Z,0.61
2023-03-05T05:13:19.157Z,0.62
2023-03-05T05:15:50.011Z,0.61
2023-03-05T05:18:20.788Z,0.61
2023-03-05T05:20:51.367Z,0.61
2023-03-05T05:23:22.133Z,0.59
2023-03-05T05:25:53.003Z,0.6
2023-03-05T05:28:23.759Z,0.62
2023-03-05T05:30:54.667Z,0.72
2023-03-05T05:33:25.374Z,0.7
2023-03-05T05:35:56.228Z,0.61
2023-03-05T05:38:26.993Z,0.58
2023-03-05T05:40:57.822Z,0.58
2023-03-05T05:43:28.613Z,0.61
2023-03-05T05:45:59.544Z,0.59
2023-03-05T05:48:30.219Z,0.58
2023-03-05T05:51:01.064Z,0.52
2023-03-05T05:53:31.904Z,0.5
2023-03-05T05:56:02.657Z,0.52
2023-03-05T05:58:33.453Z,0.47
2023-03-05T06:01:04.301Z,0.44
2023-03-05T06:03:35.075Z,0.45
2023-03-05T06:06:05.910Z,0.41
2023-03-05T06:08:36.826Z,0.42
2023-03-05T06:11:07.540Z,0.42
2023-03-05T06:13:38.348Z,0.44
2023-03-05T06:16:09.285Z,0.44
2023-03-05T06:18:40.047Z,0.46
2023-03-05T06:21:10.806Z,0.44
2023-03-05T06:23:41.589Z,0.44
2023-03-05T06:26:12.445Z,0.47
2023-03-05T06:28:43.222Z,0.5
2023-03-05T06:31:14.196Z,0.49
2023-03-05T06:33:44.862Z,0.46
2023-03-05T06:36:15.731Z,0.45
2023-03-05T06:38:48.382Z,0.44
2023-03-05T06:41:17.331Z,0.41
2023-03-05T06:43:48.733Z,0.41
2023-03-05T06:46:19.105Z,0.42
2023-03-05T06:48:49.785Z,0.44
2023-03-05T06:51:20.791Z,0.44
2023-03-05T06:53:51.413Z,0.42
2023-03-05T06:56:22.315Z,0.44
2023-03-05T06:58:53.039Z,0.46
2023-03-05T07:01:24.074Z,0.47
2023-03-05T07:03:54.665Z,0.46
2023-03-05T07:06:25.504Z,0.47
2023-03-05T07:08:56.372Z,0.48
2023-03-05T07:11:27.112Z,0.5
2023-03-05T07:13:57.915Z,0.47
2023-03-05T07:16:28.789Z,0.48
2023-03-05T07:18:59.549Z,0.49
2023-03-05T07:21:30.375Z,0.51
2023-03-05T07:24:01.177Z,0.57
2023-03-05T07:26:32.024Z,0.56
2023-03-05T07:29:02.794Z,0.52
2023-03-05T07:31:33.739Z,0.52
2023-03-05T07:34:04.527Z,0.5
2023-03-05T07:36:35.371Z,0.49
2023-03-05T07:39:06.053Z,0.52
2023-03-05T07:41:36.958Z,0.49
2023-03-05T07:44:07.663Z,0.47
2023-03-05T07:46:38.630Z,0.49
2023-03-05T07:49:09.281Z,0.48
2023-03-05T07:51:40.145Z,0.48
2023-03-05T07:54:10.879Z,0.49
2023-03-05T07:56:41.701Z,0.49
2023-03-05T07:59:12.491Z,0.48
2023-03-05T08:01:43.337Z,0.48
2023-03-05T08:04:14.128Z,0.51
2023-03-05T08:06:44.932Z,0.46
2023-03-05T08:09:15.734Z,0.47
2023-03-05T08:11:46.490Z,0.49
2023-03-05T08:14:17.278Z,0.44
2023-03-05T08:16:48.492Z,0.49
2023-03-05T08:19:18.871Z,0.49
2023-03-05T08:21:49.690Z,0.47
2023-03-05T08:24:20.483Z,0.48
2023-03-05T08:26:51.383Z,0.45
2023-03-05T08:29:22.059Z,0.43
2023-03-05T08:31:52.876Z,0.46
2023-03-05T08:34:23.675Z,0.48
2023-03-05T08:36:54.476Z,0.48
2023-03-05T08:39:24.927Z,0.59
2023-03-05T08:41:55.719Z,0.47
2023-03-05T08:44:26.507Z,0.44
2023-03-05T08:46:57.347Z,0.44
2023-03-05T08:49:28.088Z,0.42
2023-03-05T08:51:58.896Z,0.42
2023-03-05T08:54:29.784Z,0.4
2023-03-05T08:57:00.489Z,0.4
2023-03-05T08:59:31.274Z,0.4
2023-03-05T09:02:02.197Z,0.41
2023-03-05T09:04:32.885Z,0.38
2023-03-05T09:07:03.683Z,0.41
2023-03-05T09:09:34.468Z,0.41
2023-03-05T09:12:05.271Z,0.41
2023-03-05T09:14:36.054Z,0.37
2023-03-05T09:17:06.859Z,0.35
2023-03-05T09:19:37.634Z,0.37
2023-03-05T09:22:08.441Z,0.36
2023-03-05T09:24:39.098Z,0.39
2023-03-05T09:27:09.667Z,0.38
2023-03-05T09:29:42.939Z,0.35
2023-03-05T09:32:11.358Z,0.35
2023-03-05T09:34:42.031Z,0.34
2023-03-05T09:37:12.833Z,0.35
2023-03-05T09:39:43.592Z,0.38
2023-03-05T09:42:14.453Z,0.38
2023-03-05T09:44:45.197Z,0.36
2023-03-05T09:47:15.981Z,0.35
2023-03-05T09:49:46.718Z,0.36
2023-03-05T09:52:17.602Z,0.32
2023-03-05T09:54:48.242Z,0.33
2023-03-05T09:57:19.049Z,0.29
2023-03-05T09:59:49.778Z,0.28
2023-03-05T10:02:20.544Z,0.28
2023-03-05T10:04:51.299Z,0.26
2023-03-05T10:07:22.077Z,0.26
2023-03-05T10:09:52.820Z,0.26
2023-03-05T10:12:23.592Z,0.26
2023-03-05T10:14:54.431Z,0.28
2023-03-05T10:17:25.121Z,0.25
2023-03-05T10:19:55.853Z,0.26
2023-03-05T10:22:26.617Z,0.26
2023-03-05T10:24:57.377Z,0.28
2023-03-05T10:27:28.277Z,0.26
2023-03-05T10:29:58.906Z,0.26
2023-03-05T10:32:29.780Z,0.28
2023-03-05T10:35:00.429Z,0.28
2023-03-05T10:37:31.216Z,0.27
2023-03-05T10:40:01.957Z,0.25
2023-03-05T10:42:32.774Z,0.26
2023-03-05T10:45:03.529Z,0.24
2023-03-05T10:47:34.364Z,0.24
2023-03-05T10:50:05.004Z,0.26
2023-03-05T10:52:35.770Z,0.24
2023-03-05T10:55:06.546Z,0.22
2023-03-05T10:57:37.268Z,0.23
2023-03-05T11:00:08.030Z,0.24
2023-03-05T11:02:38.834Z,0.21
2023-03-05T11:05:09.599Z,0.22
2023-03-05T11:07:40.377Z,0.22
2023-03-05T11:10:10.990Z,0.2
2023-03-05T11:12:41.741Z,0.2
2023-03-05T11:15:12.530Z,0.21
2023-03-05T11:17:43.290Z,0.19
2023-03-05T11:20:13.946Z,0.19
2023-03-05T11:22:44.686Z,0.17
2023-03-05T11:25:15.403Z,0.17
2023-03-05T11:27:47.033Z,0.18
2023-03-05T11:30:16.867Z,0.18
2023-03-05T11:32:47.609Z,0.17
2023-03-05T11:35:18.309Z,0.19
2023-03-05T11:37:49.130Z,0.18
2023-03-05T11:40:19.758Z,0.19
2023-03-05T11:42:50.488Z,0.19
2023-03-05T11:45:21.192Z,0.18
2023-03-05T11:47:51.934Z,0.18
2023-03-05T11:50:22.650Z,0.19
2023-03-05T11:52:53.396Z,0.2
2023-03-05T11:55:24.114Z,0.2
2023-03-05T11:57:54.852Z,0.19
2023-03-05T12:00:25.587Z,0.19
2023-03-05T12:02:56.404Z,0.2
2023-03-05T12:05:27.094Z,0.22
2023-03-05T12:07:57.854Z,0.24
2023-03-05T12:10:28.597Z,0.25
2023-03-05T12:12:59.397Z,0.28
2023-03-05T12:15:30.155Z,0.27
2023-03-05T12:18:00.993Z,0.25
2023-03-05T12:20:31.797Z,0.27
2023-03-05T12:23:02.494Z,0.27
2023-03-05T12:25:33.275Z,0.29
2023-03-05T12:28:04.025Z,0.31
2023-03-05T12:30:34.799Z,0.31
2023-03-05T12:33:05.564Z,0.33
2023-03-05T12:35:36.387Z,0.29
2023-03-05T12:38:25.625Z,0.26
2023-03-05T12:40:37.903Z,0.26
2023-03-05T12:43:08.652Z,0.26
2023-03-05T12:45:39.319Z,0.24
2023-03-05T12:48:10.068Z,0.24
2023-03-05T12:50:40.797Z,0.24
2023-03-05T12:53:11.561Z,0.23
2023-03-05T12:55:42.283Z,0.25
2023-03-05T12:58:13.051Z,0.25
2023-03-05T13:00:43.861Z,0.24
2023-03-05T13:03:14.491Z,0.26
2023-03-05T13:05:45.244Z,0.27
2023-03-05T13:08:16.378Z,0.27
2023-03-05T13:10:46.719Z,0.28
2023-03-05T13:13:17.468Z,0.28
2023-03-05T13:15:48.226Z,0.32
2023-03-05T13:18:19.038Z,0.3
2023-03-05T13:20:49.709Z,0.29
2023-03-05T13:23:20.473Z,0.31
2023-03-05T13:25:51.204Z,0.27
2023-03-05T13:28:21.960Z,0.26
2023-03-05T13:30:52.702Z,0.27
2023-03-05T13:33:23.474Z,0.31
2023-03-05T13:35:54.312Z,0.26
2023-03-05T13:38:24.989Z,0.27
2023-03-05T13:40:57.551Z,0.29
2023-03-05T13:43:26.463Z,0.31
2023-03-05T13:45:57.349Z,0.26
2023-03-05T13:48:27.928Z,0.24
2023-03-05T13:50:58.672Z,0.25
2023-03-05T13:53:29.404Z,0.22
2023-03-05T13:56:00.126Z,0.23
2023-03-05T13:58:30.832Z,0.22
2023-03-05T14:01:01.548Z,0.24
2023-03-05T14:03:34.025Z,0.25
2023-03-05T14:06:02.975Z,0.22
2023-03-05T14:08:33.708Z,0.23
2023-03-05T14:11:04.400Z,0.24
2023-03-05T14:13:35.128Z,0.26
2023-03-05T14:16:05.854Z,0.27
2023-03-05T14:18:36.582Z,0.26
2023-03-05T14:21:07.300Z,0.26
2023-03-05T14:23:38.034Z,0.23
2023-03-05T14:26:08.849Z,0.22
2023-03-05T14:28:39.464Z,0.23
2023-03-05T14:31:10.255Z,0.22
2023-03-05T14:33:40.897Z,0.22
2023-03-05T14:36:11.653Z,0.21
2023-03-05T14:38:42.340Z,0.22
2023-03-05T14:41:12.556Z,0.21
2023-03-05T14:43:42.556Z,0.21
2023-03-05T14:46:13.810Z,0.22
2023-03-05T14:48:43.988Z,0.24
2023-03-05T14:51:14.720Z,0.21
2023-03-05T14:53:47.374Z,0.21
2023-03-05T14:56:16.234Z,0.21
2023-03-05T14:58:46.931Z,0.2
2023-03-05T15:01:17.717Z,0.2
2023-03-05T15:03:48.620Z,0.19
2023-03-05T15:06:19.598Z,0.2
2023-03-05T15:08:49.970Z,0.2
2023-03-05T15:11:20.745Z,0.22
2023-03-05T15:13:51.278Z,0.23
2023-03-05T15:16:22.046Z,0.23
2023-03-05T15:18:52.826Z,0.23
2023-03-05T15:21:23.609Z,0.23
2023-03-05T15:23:54.389Z,0.24
2023-03-05T15:26:25.233Z,0.24
2023-03-05T15:31:26.816Z,0.23
2023-03-05T15:33:57.422Z,0.24
2023-03-05T15:36:28.202Z,0.25
2023-03-05T15:38:58.947Z,0.24
2023-03-05T15:41:29.671Z,0.26
2023-03-05T15:44:00.462Z,0.25
2023-03-05T15:46:31.297Z,0.27
2023-03-05T15:49:01.952Z,0.26
2023-03-05T15:51:32.655Z,0.28
2023-03-05T15:54:03.417Z,0.28
2023-03-05T15:56:34.133Z,0.28
2023-03-05T15:59:04.884Z,0.27
2023-03-05T16:01:35.666Z,0.26
2023-03-05T16:04:06.440Z,0.28
2023-03-05T16:06:37.096Z,0.27
2023-03-05T16:09:07.866Z,0.31
2023-03-05T16:11:38.591Z,0.32
2023-03-05T16:14:09.322Z,0.33
2023-03-05T16:16:40.055Z,0.32
2023-03-05T16:19:10.795Z,0.34
2023-03-05T16:21:41.552Z,0.34
2023-03-05T16:24:12.305Z,0.36
2023-03-05T16:26:43.027Z,0.37
2023-03-05T16:29:13.814Z,0.35
2023-03-05T16:31:44.607Z,0.42
2023-03-05T16:34:15.313Z,0.45
2023-03-05T16:36:46.072Z,0.43
2023-03-05T16:39:16.938Z,0.44
2023-03-05T16:41:47.671Z,0.46
2023-03-05T16:44:18.371Z,0.47
2023-03-05T16:46:49.432Z,0.46
2023-03-05T16:49:20.000Z,0.44
2023-03-05T16:51:50.630Z,0.42
2023-03-05T16:54:21.368Z,0.4
2023-03-05T16:56:52.118Z,0.41
2023-03-05T16:59:22.872Z,0.58
2023-03-05T17:01:53.597Z,0.45
2023-03-05T17:04:24.397Z,0.43
2023-03-05T17:06:55.068Z,0.41
2023-03-05T17:09:25.821Z,0.4
2023-03-05T17:11:56.536Z,0.38
2023-03-05T17:14:27.454Z,0.4
2023-03-05T17:16:58.003Z,0.38
2023-03-05T17:19:28.772Z,0.38
2023-03-05T17:21:59.503Z,0.39
2023-03-05T17:24:30.375Z,0.39
2023-03-05T17:27:01.011Z,0.38
2023-03-05T17:29:31.784Z,0.39
2023-03-05T17:32:02.650Z,0.38
2023-03-05T17:34:36.284Z,0.39
2023-03-05T17:37:04.082Z,0.39
2023-03-05T17:39:34.823Z,0.39
2023-03-05T17:42:05.542Z,0.37
2023-03-05T17:44:36.306Z,0.4
2023-03-05T17:47:07.054Z,0.42
2023-03-05T17:49:37.816Z,0.44
2023-03-05T17:52:08.578Z,0.46
2023-03-05T17:54:39.349Z,0.45
2023-03-05T17:57:10.130Z,0.45
2023-03-05T17:59:42.106Z,0.48
2023-03-05T18:02:11.661Z,0.5
2023-03-05T18:04:42.546Z,0.53
2023-03-05T18:07:13.218Z,0.52
2023-03-05T18:09:44.012Z,0.51
2023-03-05T18:12:14.779Z,0.51
2023-03-05T18:14:45.544Z,0.53
2023-03-05T18:17:16.299Z,0.53
2023-03-05T18:19:47.062Z,0.49
2023-03-05T18:22:17.810Z,0.56
2023-03-05T18:24:48.687Z,0.63
2023-03-05T18:27:19.349Z,0.57
2023-03-05T18:29:50.132Z,0.55
2023-03-05T18:32:20.980Z,0.6
2023-03-05T18:34:51.668Z,0.55
2023-03-05T18:37:22.426Z,0.51
2023-03-05T18:39:53.232Z,0.49
2023-03-05T18:42:24.001Z,0.48
2023-03-05T18:44:54.790Z,0.45
2023-03-05T18:47:25.566Z,0.45
2023-03-05T18:49:56.385Z,0.45
2023-03-05T18:52:27.138Z,0.47
2023-03-05T18:54:57.968Z,0.45
2023-03-05T18:57:28.748Z,0.45
2023-03-05T18:59:59.499Z,0.46
2023-03-05T19:02:30.283Z,0.46
2023-03-05T19:05:01.062Z,0.47
2023-03-05T19:07:31.901Z,0.47
2023-03-05T19:10:02.639Z,0.47
2023-03-05T19:12:33.482Z,0.48
2023-03-05T19:15:04.212Z,0.48
2023-03-05T19:17:34.961Z,0.44
2023-03-05T19:20:05.749Z,0.45
2023-03-05T19:22:36.520Z,0.43
2023-03-05T19:25:07.326Z,0.42
2023-03-05T19:27:38.134Z,0.43
2023-03-05T19:30:08.890Z,0.44
2023-03-05T19:32:39.703Z,0.46
2023-03-05T19:35:10.439Z,0.43
2023-03-05T19:37:41.227Z,0.44
2023-03-05T19:40:12.045Z,0.47
2023-03-05T19:42:42.490Z,0.44
2023-03-05T19:45:13.313Z,0.43
2023-03-05T19:47:43.997Z,0.43
2023-03-05T19:50:14.792Z,0.44
2023-03-05T19:52:45.618Z,0.43
2023-03-05T19:55:16.382Z,0.42
2023-03-05T19:57:47.127Z,0.41
2023-03-05T20:00:17.936Z,0.4
2023-03-05T20:02:48.456Z,0.39
2023-03-05T20:05:19.203Z,0.4
2023-03-05T20:07:49.976Z,0.4
2023-03-05T20:10:20.768Z,0.39
2023-03-05T20:12:51.567Z,0.42
2023-03-05T20:15:22.351Z,0.41
2023-03-05T20:17:53.114Z,0.4
2023-03-05T20:20:23.994Z,0.42
2023-03-05T20:22:54.670Z,0.44
2023-03-05T20:25:25.464Z,0.44
2023-03-05T20:27:56.336Z,0.45
2023-03-05T20:30:27.008Z,0.46
2023-03-05T20:32:57.872Z,0.48
2023-03-05T20:35:28.560Z,0.5
2023-03-05T20:37:59.300Z,0.5
2023-03-05T20:40:30.203Z,0.46
2023-03-05T20:43:00.874Z,0.44
2023-03-05T20:45:31.637Z,0.46
2023-03-05T20:48:02.401Z,0.47
2023-03-05T20:50:33.193Z,0.47
2023-03-05T20:53:03.754Z,0.53
2023-03-05T20:55:34.476Z,0.44
2023-03-05T20:58:05.255Z,0.44
2023-03-05T21:00:36.087Z,0.42
2023-03-05T21:03:06.483Z,0.41
2023-03-05T21:05:37.329Z,0.4
2023-03-05T21:08:08.107Z,0.41
2023-03-05T21:10:39.017Z,0.41
2023-03-05T21:13:09.753Z,0.41
2023-03-05T21:15:40.566Z,0.4
2023-03-05T21:18:11.378Z,0.39
2023-03-05T21:20:42.224Z,0.4
2023-03-05T21:23:13.024Z,0.38
2023-03-05T21:25:43.873Z,0.39
2023-03-05T21:28:14.660Z,0.38
2023-03-05T21:30:45.485Z,0.37
2023-03-05T21:33:16.287Z,0.36
2023-03-05T21:35:47.164Z,0.37
2023-03-05T21:38:18.001Z,0.38
2023-03-05T21:40:48.516Z,0.38
2023-03-05T21:43:19.304Z,0.37
2023-03-05T21:45:50.140Z,0.38
2023-03-05T21:48:20.934Z,0.39
2023-03-05T21:50:51.770Z,0.37
2023-03-05T21:53:22.579Z,0.37
2023-03-05T21:55:53.438Z,0.35
2023-03-05T21:58:23.983Z,0.36
2023-03-05T22:00:54.793Z,0.33
2023-03-05T22:03:25.561Z,0.32
2023-03-05T22:05:56.419Z,0.33
2023-03-05T22:08:27.197Z,0.33
2023-03-05T22:10:58.046Z,0.33
2023-03-05T22:13:28.882Z,0.31
2023-03-05T22:15:59.734Z,0.3
2023-03-05T22:18:30.526Z,0.3
2023-03-05T22:21:01.372Z,0.32
2023-03-05T22:23:32.202Z,0.32
2023-03-05T22:26:03.045Z,0.32
2023-03-05T22:28:33.866Z,0.34
2023-03-05T22:31:04.744Z,0.39
2023-03-05T22:33:35.546Z,0.42
2023-03-05T22:36:06.371Z,0.41
2023-03-05T22:38:37.200Z,0.41
2023-03-05T22:41:08.029Z,0.37
2023-03-05T22:43:38.864Z,0.36
2023-03-05T22:46:09.811Z,0.34
2023-03-05T22:48:40.518Z,0.34
2023-03-05T22:51:11.395Z,0.34
2023-03-05T22:53:42.199Z,0.35
2023-03-05T22:56:13.060Z,0.35
2023-03-05T22:58:43.869Z,0.34
2023-03-05T23:01:14.741Z,0.34
2023-03-05T23:03:45.695Z,0.35
2023-03-05T23:06:16.392Z,0.35
2023-03-05T23:08:47.216Z,0.35
2023-03-05T23:11:18.082Z,0.37
2023-03-05T23:13:48.905Z,0.37
2023-03-05T23:16:19.734Z,0.35
2023-03-05T23:18:50.551Z,0.34
2023-03-05T23:21:21.420Z,0.33
2023-03-05T23:23:52.214Z,0.34
2023-03-05T23:26:23.077Z,0.35
2023-03-05T23:28:53.989Z,0.36
2023-03-05T23:31:24.846Z,0.37
2023-03-05T23:33:55.663Z,0.38
2023-03-05T23:36:26.401Z,0.36
2023-03-05T23:38:57.235Z,0.37
2023-03-05T23:41:28.076Z,0.38
2023-03-05T23:43:58.885Z,0.42
2023-03-05T23:46:29.729Z,0.41
2023-03-05T23:49:00.570Z,0.39
2023-03-05T23:51:31.409Z,0.39
2023-03-05T23:54:02.207Z,0.4
2023-03-05T23:56:33.063Z,0.39
2023-03-05T23:59:03.896Z,0.41
